X  Chiuso Dati meteorologici dell'aviazione (METAR)        LIBA Tremiti Eliporto
Temperatura
21°C Temperatura
10°C Punto di rugiada
49% Umidità



Vento
13 KM/O
8 MPH
4 M/S
7 KTS



290°
ONO
Condizioni attuali

Mostly Sunny Per lo piu' sereno
Pressione 1022 (hPa) - 30.17 (inHg)
Visibilità 6 (miglio) - 10 (km)
Aeroporto
Codice-Aeroporto LIBA

Posizione: Tremiti Eliporto
Distanza: 60 (km)

Metar:
METAR LIBA 040955Z 29007KT 9999 FEW040 21/10 Q1022 RMK FEW VIS MIN 9999 WIND THR11 25006KT WIND THR29 /////KT BLU

Ore: 04-10-2022 11:55 CEST